Time;durP1;ratioP1;P1;durP2;ratioP2;P2;SDS_P1;SDS_P2;PMS_P1;PMS_P2;Temp;Humidity;BMP_temperature;BMP_pressure;BME280_temperature;BME280_humidity;BME280_pressure;Samples;Min_cycle;Max_cycle;Signal;HPM_P1;HPM_P2
2023/02/16 00:02:08;;;;;;;44.10;27.63;;;;;;;9.82;64.41;102070.03;5052408;28;20075;-69
2023/02/16 00:04:36;;;;;;;41.47;26.83;;;;;;;9.85;64.45;102074.19;5066581;28;20057;-65
2023/02/16 00:07:03;;;;;;;38.72;25.83;;;;;;;9.88;64.00;102079.97;5073348;28;20403;-65
2023/02/16 00:09:32;;;;;;;34.95;26.42;;;;;;;9.87;64.41;102081.06;5072794;28;20056;-66
2023/02/16 00:14:45;;;;;;;39.00;27.20;;;;;;;9.80;64.58;102074.16;5071774;28;20045;-65
2023/02/16 00:17:12;;;;;;;39.55;26.85;;;;;;;9.78;64.59;102073.63;5073442;28;20041;-67
2023/02/16 00:19:41;;;;;;;41.10;27.25;;;;;;;9.60;65.42;102068.66;5073164;28;20061;-64
2023/02/16 00:22:10;;;;;;;42.72;28.15;;;;;;;9.57;65.28;102069.22;5071340;28;20049;-66
2023/02/16 00:24:37;;;;;;;39.80;27.88;;;;;;;9.76;65.22;102064.81;5070089;28;20056;-65
2023/02/16 00:27:12;;;;;;;38.80;27.88;;;;;;;9.46;65.71;102070.31;5066729;28;20059;-65
2023/02/16 00:29:40;;;;;;;41.08;27.35;;;;;;;9.55;65.98;102069.50;5047719;28;20053;-65
2023/02/16 00:32:11;;;;;;;41.28;27.23;;;;;;;9.42;65.96;102067.28;5076751;28;20056;-66
2023/02/16 00:34:41;;;;;;;44.92;28.98;;;;;;;9.39;66.41;102064.25;5071477;28;20053;-66
2023/02/16 00:37:11;;;;;;;39.08;27.13;;;;;;;9.43;66.41;102068.09;5067492;28;20407;-65
2023/02/16 00:39:40;;;;;;;43.42;27.17;;;;;;;9.19;67.03;102062.28;5057029;28;20071;-66
2023/02/16 00:42:10;;;;;;;39.85;26.63;;;;;;;9.31;66.75;102060.09;5069889;28;20071;-65
2023/02/16 00:44:44;;;;;;;;;;;;;;;9.27;66.89;102064.50;5056696;28;20420;-66
2023/02/16 00:47:36;;;;;;;40.60;27.55;;;;;;;9.24;66.88;102058.72;5068454;28;19940;-65
2023/02/16 00:50:22;;;;;;;43.40;27.92;;;;;;;9.31;66.78;102056.53;5072132;28;20052;-65
2023/02/16 00:52:50;;;;;;;39.08;26.88;;;;;;;9.48;66.47;102052.44;5038299;28;20049;-65
2023/02/16 00:55:20;;;;;;;38.30;26.25;;;;;;;9.39;66.50;102050.50;5058367;28;20052;-65
2023/02/16 00:58:00;;;;;;;39.08;26.75;;;;;;;9.32;66.52;102047.19;5078265;28;20060;-65
2023/02/16 01:00:34;;;;;;;44.25;28.90;;;;;;;9.23;66.85;102051.56;5075589;28;20053;-66
2023/02/16 01:03:06;;;;;;;40.78;27.33;;;;;;;9.20;67.06;102043.88;5039044;28;20041;-65
2023/02/16 01:05:35;;;;;;;43.83;28.13;;;;;;;9.03;67.87;102044.91;5044449;28;20045;-66
2023/02/16 01:13:27;;;;;;;38.78;26.00;;;;;;;9.00;68.05;102041.88;5075413;28;20048;-73
2023/02/16 01:15:55;;;;;;;39.23;27.13;;;;;;;9.12;67.81;102042.47;5057786;28;20727;-72
2023/02/16 01:18:22;;;;;;;39.47;25.77;;;;;;;9.29;67.16;102048.56;5065510;28;20048;-73
2023/02/16 01:20:50;;;;;;;35.15;24.52;;;;;;;9.24;67.49;102047.72;5043585;28;20044;-74
2023/02/16 01:23:18;;;;;;;36.97;25.38;;;;;;;9.29;67.09;102042.22;5059508;28;20056;-72
2023/02/16 01:25:45;;;;;;;37.75;25.17;;;;;;;9.16;67.25;102043.56;5050074;28;20521;-73
2023/02/16 01:28:20;;;;;;;42.22;26.45;;;;;;;9.13;67.77;102036.69;5076450;28;20162;-66
2023/02/16 01:30:48;;;;;;;39.95;25.65;;;;;;;9.20;67.63;102035.63;5074170;28;20049;-66
2023/02/16 01:33:15;;;;;;;41.42;26.98;;;;;;;9.29;67.30;102031.25;5049848;28;20044;-65
2023/02/16 01:35:43;;;;;;;39.72;25.35;;;;;;;9.12;67.62;102036.16;5071900;28;20051;-67
2023/02/16 01:38:22;;;;;;;38.35;27.05;;;;;;;9.21;67.83;102027.09;5075370;28;20049;-67
2023/02/16 01:41:31;;;;;;;37.50;26.75;;;;;;;9.16;67.39;102031.75;5073253;28;20063;-65
2023/02/16 01:44:03;;;;;;;37.17;26.13;;;;;;;9.13;67.57;102022.13;5076951;28;20052;-66
2023/02/16 01:46:49;;;;;;;38.22;26.67;;;;;;;8.90;68.33;102022.63;5052250;28;20342;-65
2023/02/16 01:49:18;;;;;;;40.10;27.25;;;;;;;9.06;68.14;102016.91;5065300;28;20043;-65
2023/02/16 01:51:56;;;;;;;42.30;26.87;;;;;;;9.04;68.30;102013.59;5074048;28;20176;-66
2023/02/16 01:54:42;;;;;;;41.33;27.63;;;;;;;9.00;68.37;102007.00;5056561;28;20049;-66
2023/02/16 01:57:39;;;;;;;41.15;26.23;;;;;;;8.88;69.28;102011.91;5072674;28;20075;-66
2023/02/16 02:00:15;;;;;;;40.33;26.45;;;;;;;8.94;69.39;102005.31;5058764;28;20060;-66
2023/02/16 02:02:53;;;;;;;38.75;26.45;;;;;;;9.04;68.97;102013.59;5031250;28;20657;-65
2023/02/16 02:05:33;;;;;;;37.78;25.48;;;;;;;9.10;68.94;102012.50;5041904;28;20048;-66
2023/02/16 02:08:10;;;;;;;;;;;;;;;8.94;69.13;102010.81;5073003;28;20072;-65
2023/02/16 02:11:08;;;;;;;39.70;26.00;;;;;;;9.03;68.68;102013.88;5072838;28;19924;-65
2023/02/16 02:13:39;;;;;;;41.90;27.05;;;;;;;8.68;69.28;102005.53;5040360;28;20048;-65
2023/02/16 02:16:07;;;;;;;42.33;27.88;;;;;;;8.59;69.25;102007.16;5060891;28;20048;-65
2023/02/16 02:18:34;;;;;;;40.83;27.77;;;;;;;8.49;69.41;101994.19;5057185;28;20052;-65
2023/02/16 02:24:10;;;;;;;43.92;28.73;;;;;;;8.10;70.31;101989.31;5038362;28;20389;-66
2023/02/16 02:27:05;;;;;;;40.17;28.65;;;;;;;7.93;71.05;101982.06;5066869;28;20387;-66
2023/02/16 02:30:09;;;;;;;41.47;28.65;;;;;;;8.16;70.77;101974.53;5055173;28;20055;-67
2023/02/16 02:32:55;;;;;;;42.92;28.23;;;;;;;8.15;70.33;101976.44;5055409;28;20061;-66
2023/02/16 02:35:46;;;;;;;37.63;26.70;;;;;;;8.23;70.20;101972.38;5039754;28;20049;-66
2023/02/16 02:38:38;;;;;;;43.22;27.75;;;;;;;8.13;70.33;101984.09;5057969;28;20052;-66
2023/02/16 02:44:23;;;;;;;40.70;26.73;;;;;;;8.06;70.50;101997.25;5059110;28;20040;-66
2023/02/16 02:46:50;;;;;;;42.58;28.42;;;;;;;8.27;70.21;101984.47;5067035;28;20045;-65
2023/02/16 02:49:19;;;;;;;44.58;27.63;;;;;;;8.21;70.25;101985.53;5044503;28;20041;-67
2023/02/16 02:51:47;;;;;;;38.38;26.25;;;;;;;8.17;70.33;101985.25;5067298;28;20044;-66
2023/02/16 03:00:42;;;;;;;40.47;26.65;;;;;;;8.20;70.55;101983.84;5050014;28;20040;-66
2023/02/16 03:03:26;;;;;;;42.30;27.13;;;;;;;8.33;70.59;101975.19;5054357;28;20055;-66
2023/02/16 03:06:01;;;;;;;40.45;26.65;;;;;;;8.35;70.41;101973.00;5062098;28;20417;-65
2023/02/16 03:08:31;;;;;;;37.85;26.73;;;;;;;8.48;69.66;101970.56;5074134;28;20068;-65
2023/02/16 03:13:59;;;;;;;36.38;25.15;;;;;;;8.35;70.50;101971.06;5054401;28;20052;-66
2023/02/16 03:16:37;;;;;;;40.90;26.90;;;;;;;8.29;70.36;101971.31;5066669;28;20148;-66
2023/02/16 03:30:14;;;;;;;39.28;26.55;;;;;;;8.03;70.78;101973.09;5071385;28;20040;-66
2023/02/16 03:32:43;;;;;;;41.85;26.95;;;;;;;8.27;70.14;101963.34;5073843;28;20049;-66
2023/02/16 03:35:11;;;;;;;40.28;26.42;;;;;;;8.03;70.91;101973.09;5065912;28;20484;-66
2023/02/16 03:37:40;;;;;;;37.90;27.05;;;;;;;8.25;70.44;101968.28;5073872;28;20048;-66
2023/02/16 03:40:28;;;;;;;36.80;25.55;;;;;;;8.09;71.23;101957.47;5052610;28;20052;-67
2023/02/16 03:42:57;;;;;;;38.70;26.00;;;;;;;8.22;71.00;101965.22;5056717;28;20052;-72
2023/02/16 03:45:25;;;;;;;39.10;25.90;;;;;;;8.25;70.91;101961.97;5053034;28;20400;-73
2023/02/16 03:47:53;;;;;;;42.05;25.67;;;;;;;8.15;71.30;101965.47;5064866;28;20052;-74
2023/02/16 03:50:20;;;;;;;36.90;25.27;;;;;;;8.05;72.22;101962.66;5059375;28;20051;-73
2023/02/16 03:52:48;;;;;;;37.78;25.88;;;;;;;8.14;71.57;101963.81;5074743;28;20044;-75
2023/02/16 03:55:15;;;;;;;36.65;25.33;;;;;;;8.19;72.01;101965.75;5073224;28;20056;-74
2023/02/16 03:57:43;;;;;;;39.20;25.00;;;;;;;8.23;71.72;101964.94;5074244;28;20044;-75
2023/02/16 04:00:11;;;;;;;42.08;25.95;;;;;;;8.24;71.84;101972.13;5067758;28;20048;-74
2023/02/16 04:02:42;;;;;;;35.80;23.52;;;;;;;8.22;72.54;101973.44;5075239;28;20052;-65
2023/02/16 04:05:09;;;;;;;38.95;23.95;;;;;;;8.33;72.66;101978.75;5062007;28;20440;-65
2023/02/16 04:07:37;;;;;;;38.20;24.25;;;;;;;8.39;72.62;101974.94;5071033;28;20155;-66
2023/02/16 04:10:05;;;;;;;38.40;24.52;;;;;;;8.38;72.05;101980.69;5040110;28;20041;-66
2023/02/16 04:12:35;;;;;;;35.17;24.33;;;;;;;8.33;72.53;101969.69;5058492;28;20055;-66
2023/02/16 04:15:07;;;;;;;;;;;;;;;8.38;72.45;101972.47;5059054;28;20060;-66
2023/02/16 04:17:34;;;;;;;36.17;23.52;;;;;;;8.39;73.03;101968.59;5068677;28;20245;-65
2023/02/16 04:20:02;;;;;;;35.20;23.20;;;;;;;8.38;72.92;101967.81;5053687;28;20056;-66
2023/02/16 04:22:29;;;;;;;34.38;23.05;;;;;;;8.33;73.32;101967.78;5059463;28;20061;-65
2023/02/16 04:24:56;;;;;;;32.55;23.38;;;;;;;8.44;72.72;101958.47;5069046;28;20527;-65
2023/02/16 04:27:24;;;;;;;38.38;23.08;;;;;;;8.44;72.88;101966.72;5074750;28;20049;-66
2023/02/16 04:29:51;;;;;;;35.97;23.98;;;;;;;8.48;72.95;101964.25;5070423;28;20068;-66
2023/02/16 04:32:19;;;;;;;37.72;24.40;;;;;;;8.42;72.98;101962.59;5070575;28;20044;-65
2023/02/16 04:34:46;;;;;;;35.60;24.45;;;;;;;8.28;72.79;101962.25;5065033;28;20056;-67
2023/02/16 04:37:13;;;;;;;33.92;23.90;;;;;;;8.17;73.47;101965.19;5069297;28;20044;-72
2023/02/16 04:39:41;;;;;;;41.75;24.00;;;;;;;8.47;72.17;101968.91;5029553;28;20052;-72
2023/02/16 04:42:08;;;;;;;36.13;24.42;;;;;;;8.13;72.34;101961.31;5066694;28;20055;-72
2023/02/16 04:44:35;;;;;;;39.38;25.00;;;;;;;7.84;73.69;101971.88;5062039;28;20056;-74
2023/02/16 04:47:03;;;;;;;36.00;25.48;;;;;;;8.10;73.16;101967.34;5071647;28;20055;-72
2023/02/16 04:49:30;;;;;;;36.78;24.05;;;;;;;7.92;73.72;101963.13;5053418;28;20052;-73
2023/02/16 04:51:59;;;;;;;34.80;23.92;;;;;;;7.97;73.58;101964.00;5067100;28;20049;-74
2023/02/16 04:54:27;;;;;;;37.27;22.93;;;;;;;7.70;74.17;101960.53;5072954;28;20052;-74
2023/02/16 04:56:54;;;;;;;33.95;22.90;;;;;;;7.79;74.28;101971.84;5072233;28;20056;-73
2023/02/16 04:59:21;;;;;;;37.35;23.45;;;;;;;7.65;74.62;101973.38;5072887;28;20052;-73
2023/02/16 05:01:49;;;;;;;42.40;24.13;;;;;;;7.51;75.32;101978.50;5075574;28;20487;-74
2023/02/16 05:04:16;;;;;;;31.98;22.70;;;;;;;7.78;74.07;101972.91;5067048;28;20067;-72
2023/02/16 05:06:43;;;;;;;32.70;23.40;;;;;;;7.75;74.12;101973.44;5072350;28;20087;-74
2023/02/16 05:09:11;;;;;;;35.70;23.60;;;;;;;7.58;74.75;101975.53;5074110;28;20059;-65
2023/02/16 05:14:45;;;;;;;35.20;22.83;;;;;;;7.85;73.80;101981.75;5075332;28;20060;-65
2023/02/16 05:17:21;;;;;;;39.60;24.77;;;;;;;7.60;74.54;101984.31;5075399;28;20460;-65
2023/02/16 05:19:51;;;;;;;39.50;23.35;;;;;;;7.52;74.86;101985.63;5075295;28;20055;-66
2023/02/16 05:22:19;;;;;;;31.10;22.17;;;;;;;7.66;74.82;101977.78;5061075;28;20061;-66
2023/02/16 05:24:47;;;;;;;33.90;23.55;;;;;;;7.55;75.32;101976.88;5060678;28;20045;-66
2023/02/16 05:27:22;;;;;;;40.83;23.35;;;;;;;7.74;74.46;101975.34;5073227;28;20668;-65
2023/02/16 05:29:50;;;;;;;34.75;23.90;;;;;;;7.69;74.91;101969.00;5075811;28;20052;-65
2023/02/16 05:32:17;;;;;;;36.90;23.40;;;;;;;7.65;74.21;101971.44;5061059;28;20048;-65
2023/02/16 05:34:45;;;;;;;37.90;22.90;;;;;;;7.61;74.80;101967.59;5039373;28;20052;-66
2023/02/16 05:37:13;;;;;;;37.42;23.40;;;;;;;7.70;74.61;101973.41;5058761;28;20049;-65
2023/02/16 05:39:41;;;;;;;35.17;23.95;;;;;;;7.60;75.25;101963.19;5055737;28;20053;-65
2023/02/16 05:42:09;;;;;;;38.75;23.42;;;;;;;7.71;75.28;101975.06;5068108;28;20053;-66
2023/02/16 05:44:37;;;;;;;128.73;71.95;;;;;;;7.90;74.66;101971.63;5075649;28;20048;-66
2023/02/16 05:47:04;;;;;;;430.70;197.23;;;;;;;7.78;75.02;101981.97;5073595;28;20056;-66
2023/02/16 05:49:31;;;;;;;55.08;31.08;;;;;;;7.92;74.97;101976.84;5076887;28;20055;-64
2023/02/16 05:51:59;;;;;;;34.45;23.70;;;;;;;7.88;75.44;101972.97;5075312;28;20056;-67
2023/02/16 05:54:26;;;;;;;37.10;23.30;;;;;;;7.95;75.29;101968.06;5057760;28;20048;-67
2023/02/16 05:56:54;;;;;;;51.33;29.15;;;;;;;7.76;75.74;101975.94;5067461;28;20096;-67
2023/02/16 05:59:22;;;;;;;46.20;28.15;;;;;;;7.93;75.66;101978.53;5073665;28;20048;-66
2023/02/16 06:01:49;;;;;;;99.65;51.33;;;;;;;7.81;75.84;101967.72;5075159;28;20538;-66
2023/02/16 06:04:19;;;;;;;32.73;23.50;;;;;;;8.04;75.31;101974.72;5067845;28;20043;-66
2023/02/16 06:06:47;;;;;;;36.30;22.70;;;;;;;7.84;75.19;101982.84;5069525;28;20503;-66
2023/02/16 06:09:14;;;;;;;36.72;24.35;;;;;;;8.09;74.93;101982.97;5072271;28;20060;-64
2023/02/16 06:11:42;;;;;;;37.13;24.15;;;;;;;7.93;75.22;101970.28;5068834;28;20460;-66
2023/02/16 06:14:13;;;;;;;37.65;23.30;;;;;;;7.87;75.47;101977.66;5056141;28;20052;-64
2023/02/16 06:16:43;;;;;;;34.58;23.13;;;;;;;7.81;75.97;101983.38;5064616;28;20060;-66
2023/02/16 06:19:11;;;;;;;34.08;22.70;;;;;;;8.06;75.32;101978.03;5056697;28;20053;-72
2023/02/16 06:21:39;;;;;;;35.67;22.05;;;;;;;8.10;74.67;101981.91;5070695;28;20079;-73
2023/02/16 06:24:08;;;;;;;35.10;23.13;;;;;;;8.18;74.67;101989.63;5076057;28;20045;-73
2023/02/16 06:26:36;;;;;;;35.07;23.63;;;;;;;8.06;74.48;101990.91;5052872;28;20048;-72
2023/02/16 06:29:04;;;;;;;38.67;22.58;;;;;;;8.10;74.29;101989.31;5066866;28;20044;-73
2023/02/16 06:31:31;;;;;;;35.90;23.30;;;;;;;8.10;74.34;101981.91;5072790;28;20052;-73
2023/02/16 06:34:03;;;;;;;32.83;23.00;;;;;;;7.84;74.91;101991.91;5076227;28;20048;-72
2023/02/16 06:36:31;;;;;;;35.03;22.80;;;;;;;7.72;75.71;101993.19;5051654;28;20068;-73
2023/02/16 06:38:59;;;;;;;33.90;22.50;;;;;;;7.59;76.30;101999.94;5055552;28;20457;-72
2023/02/16 06:41:38;;;;;;;33.45;22.65;;;;;;;7.62;76.45;102002.16;5065499;28;20653;-73
2023/02/16 06:44:11;;;;;;;36.53;23.35;;;;;;;7.64;75.99;102008.19;5063671;28;20045;-74
2023/02/16 06:46:43;;;;;;;33.42;22.05;;;;;;;7.77;76.42;102009.69;5065739;28;20049;-73
2023/02/16 06:49:12;;;;;;;36.25;22.55;;;;;;;7.77;75.82;102012.41;5064687;28;20061;-74
2023/02/16 06:51:40;;;;;;;39.97;23.15;;;;;;;7.72;76.37;102013.19;5050746;28;20056;-74
2023/02/16 06:54:07;;;;;;;38.35;23.25;;;;;;;7.74;76.60;102019.25;5038015;28;20507;-73
2023/02/16 06:56:35;;;;;;;33.97;22.50;;;;;;;7.59;77.33;102021.88;5066735;28;20060;-74
2023/02/16 06:59:04;;;;;;;34.90;23.13;;;;;;;7.49;77.40;102015.47;5057192;28;20052;-74
2023/02/16 07:01:31;;;;;;;35.78;23.50;;;;;;;7.44;78.16;102020.94;5067594;28;20423;-72
2023/02/16 07:03:58;;;;;;;40.13;23.45;;;;;;;7.43;77.96;102032.97;5057400;28;20049;-73
2023/02/16 07:06:28;;;;;;;33.17;23.38;;;;;;;7.50;79.06;102030.81;5043632;28;20606;-74
2023/02/16 07:08:55;;;;;;;38.42;23.27;;;;;;;7.51;79.02;102033.34;5058504;28;20060;-74
2023/02/16 07:11:22;;;;;;;35.65;23.10;;;;;;;7.68;78.69;102027.69;5049075;28;20056;-74
2023/02/16 07:13:50;;;;;;;42.38;23.70;;;;;;;7.91;78.07;102033.63;5066348;28;20057;-73
2023/02/16 07:16:17;;;;;;;36.70;22.80;;;;;;;7.98;77.44;102036.16;5064247;28;20040;-74
2023/02/16 07:18:46;;;;;;;35.85;23.52;;;;;;;8.06;77.26;102034.81;5056742;28;20053;-74
2023/02/16 07:21:14;;;;;;;35.72;22.30;;;;;;;8.10;77.15;102044.19;5066759;28;20045;-74
2023/02/16 07:23:41;;;;;;;37.38;22.20;;;;;;;8.40;76.56;102049.91;5049432;28;20751;-73
2023/02/16 07:26:09;;;;;;;33.05;22.60;;;;;;;8.27;76.40;102055.84;5073453;28;20403;-74
2023/02/16 07:28:36;;;;;;;44.97;24.00;;;;;;;8.11;77.24;102052.16;5058180;28;20052;-73
2023/02/16 07:31:08;;;;;;;37.28;22.08;;;;;;;8.26;77.08;102056.94;5060236;28;20064;-73
2023/02/16 07:33:36;;;;;;;34.15;22.42;;;;;;;8.30;77.51;102063.56;5054579;28;20049;-74
2023/02/16 07:36:04;;;;;;;34.17;23.13;;;;;;;8.21;77.90;102062.38;5047833;28;20043;-73
2023/02/16 07:38:32;;;;;;;42.10;24.17;;;;;;;8.40;77.67;102055.38;5057797;28;20057;-73
2023/02/16 07:40:59;;;;;;;40.53;22.73;;;;;;;8.65;77.26;102059.06;5054738;28;20504;-71
2023/02/16 07:43:26;;;;;;;36.70;22.80;;;;;;;8.91;76.34;102063.56;5057854;28;20057;-71
2023/02/16 07:45:54;;;;;;;33.15;21.63;;;;;;;8.96;76.63;102063.59;5058614;28;20044;-71
2023/02/16 07:48:21;;;;;;;36.33;23.02;;;;;;;8.99;76.91;102054.81;5056211;28;20044;-74
2023/02/16 07:50:49;;;;;;;37.92;22.17;;;;;;;9.15;76.45;102060.34;5045976;28;20047;-71
2023/02/16 07:53:16;;;;;;;42.85;22.95;;;;;;;9.07;76.57;102053.44;5047177;28;20044;-72
2023/02/16 07:55:44;;;;;;;40.83;22.52;;;;;;;9.11;76.98;102054.56;5027043;28;20045;-72
2023/02/16 07:58:26;;;;;;;44.92;22.67;;;;;;;8.98;77.70;102055.06;5060283;28;20060;-73
2023/02/16 08:01:08;;;;;;;39.90;23.25;;;;;;;8.89;78.51;102052.00;5067014;28;20052;-72
2023/02/16 08:03:36;;;;;;;36.65;23.35;;;;;;;9.20;78.25;102057.59;5055594;28;20060;-76
2023/02/16 08:06:16;;;;;;;38.38;22.13;;;;;;;9.23;77.77;102057.88;5064540;28;20052;-72
2023/02/16 08:08:45;;;;;;;44.30;23.80;;;;;;;9.08;78.39;102075.16;5060288;28;20064;-73
2023/02/16 08:11:25;;;;;;;42.28;23.88;;;;;;;9.04;79.38;102068.56;5070244;28;20036;-71
2023/02/16 08:13:53;;;;;;;;;;;;;;;8.92;79.87;102068.00;5071099;28;20047;-72
2023/02/16 08:16:22;;;;;;;45.00;23.92;;;;;;;8.91;79.83;102069.06;5066775;28;20394;-73
2023/02/16 08:18:51;;;;;;;39.95;22.50;;;;;;;9.10;79.27;102080.38;5059881;28;20056;-72
2023/02/16 08:21:20;;;;;;;34.92;22.98;;;;;;;9.35;78.43;102079.63;5067617;28;20056;-71
2023/02/16 08:23:53;;;;;;;44.58;23.92;;;;;;;9.45;77.83;102071.41;5073835;28;20136;-71
2023/02/16 08:26:22;;;;;;;49.75;23.75;;;;;;;9.41;78.07;102070.28;5058155;28;23966;-71
2023/02/16 08:28:53;;;;;;;44.15;23.67;;;;;;;9.38;78.40;102068.91;5052914;28;20041;-72
2023/02/16 08:31:23;;;;;;;41.88;23.75;;;;;;;9.30;78.83;102063.94;5052763;28;20497;-72
2023/02/16 08:33:52;;;;;;;37.28;22.92;;;;;;;9.37;79.18;102069.19;5045785;28;20045;-72
2023/02/16 08:36:22;;;;;;;40.80;23.10;;;;;;;9.42;79.07;102063.69;5048608;28;20057;-72
2023/02/16 08:38:52;;;;;;;38.17;22.80;;;;;;;9.58;79.11;102054.34;5030814;28;20064;-72
2023/02/16 08:41:22;;;;;;;36.20;22.65;;;;;;;9.58;79.23;102044.19;5063348;28;20059;-71
2023/02/16 08:43:50;;;;;;;33.13;22.88;;;;;;;9.84;78.77;102034.00;5058567;28;20496;-71
2023/02/16 08:46:17;;;;;;;40.60;23.48;;;;;;;9.88;77.93;102037.84;5062432;28;20053;-72
2023/02/16 08:48:46;;;;;;;36.05;23.38;;;;;;;9.78;78.46;102044.19;5042255;28;20067;-72
2023/02/16 08:51:17;;;;;;;35.00;22.83;;;;;;;9.82;77.49;102055.44;5060977;28;20196;-71
2023/02/16 08:53:47;;;;;;;44.47;24.17;;;;;;;9.74;77.14;102048.59;5019339;28;20053;-72
2023/02/16 08:56:15;;;;;;;33.20;19.50;;;;;;;11.74;83.03;102048.91;5046883;28;20427;-48
2023/02/16 08:58:43;;;;;;;40.33;20.40;;;;;;;13.74;61.97;102032.84;5061186;28;20052;-71
2023/02/16 09:01:11;;;;;;;43.60;22.67;;;;;;;11.79;65.89;102035.03;5044756;28;20052;-71
2023/02/16 09:03:43;;;;;;;40.28;23.95;;;;;;;11.17;68.27;102045.97;5060493;28;20056;-71
2023/02/16 09:06:13;;;;;;;40.83;23.90;;;;;;;10.84;69.40;102033.75;5061478;28;20692;-71
2023/02/16 09:08:40;;;;;;;41.10;23.60;;;;;;;10.53;71.18;102045.97;5061063;28;20400;-72
2023/02/16 09:11:11;;;;;;;38.30;24.48;;;;;;;10.19;72.87;102054.09;5068370;28;20045;-70
2023/02/16 09:13:39;;;;;;;39.17;24.50;;;;;;;10.23;72.77;102059.03;5058442;28;20053;-72
2023/02/16 09:16:14;;;;;;;42.00;24.35;;;;;;;10.04;73.42;102069.78;5058323;28;20053;-72
2023/02/16 09:18:43;;;;;;;36.33;24.95;;;;;;;10.10;73.73;102079.69;5048645;28;20055;-71
2023/02/16 09:21:14;;;;;;;41.45;24.73;;;;;;;10.06;73.81;102078.56;5065203;28;20056;-71
2023/02/16 09:23:47;;;;;;;37.83;24.08;;;;;;;10.00;74.52;102083.25;5064786;28;20052;-71
2023/02/16 09:26:19;;;;;;;40.58;24.05;;;;;;;10.02;75.09;102094.00;5063775;28;20037;-72
2023/02/16 09:28:47;;;;;;;41.38;24.52;;;;;;;10.00;75.16;102102.53;5065223;28;20057;-71
2023/02/16 09:31:24;;;;;;;47.38;25.83;;;;;;;9.99;75.61;102094.53;5070663;28;20048;-69
2023/02/16 09:34:12;;;;;;;37.35;23.45;;;;;;;10.07;75.29;102092.06;5064879;28;20065;-70
2023/02/16 09:36:46;;;;;;;39.83;24.80;;;;;;;10.13;75.09;102084.63;5069997;28;20044;-71
2023/02/16 09:39:15;;;;;;;38.47;24.42;;;;;;;10.29;75.26;102085.47;5066683;28;20037;-71
2023/02/16 09:42:14;;;;;;;51.53;25.47;;;;;;;10.47;75.39;102080.19;5046004;28;20049;-71
2023/02/16 09:44:53;;;;;;;48.13;23.75;;;;;;;10.53;75.44;102084.56;5060189;28;20055;-74
2023/02/16 09:47:29;;;;;;;36.55;23.77;;;;;;;10.47;75.99;102099.47;5058989;28;20049;-72
2023/02/16 09:50:00;;;;;;;38.65;23.35;;;;;;;10.68;75.89;102086.44;5068512;28;20064;-73
2023/02/16 09:52:43;;;;;;;38.15;22.45;;;;;;;11.04;75.25;102077.75;5063430;28;23595;-74
2023/02/16 09:55:15;;;;;;;34.72;22.85;;;;;;;10.89;75.45;102088.84;5060360;28;20365;-72
2023/02/16 09:57:56;;;;;;;42.30;23.23;;;;;;;11.17;74.73;102084.59;5064696;28;20511;-74
2023/02/16 10:00:44;;;;;;;39.08;22.77;;;;;;;11.04;74.94;102087.94;5065235;28;20480;-73
2023/02/16 10:03:37;;;;;;;42.78;23.65;;;;;;;10.83;75.44;102089.97;5061102;28;20071;-72
2023/02/16 10:06:26;;;;;;;34.28;23.17;;;;;;;10.94;75.48;102096.28;5062347;28;20076;-74
2023/02/16 10:09:15;;;;;;;40.50;24.13;;;;;;;11.09;74.99;102093.44;5062408;28;20493;-73
2023/02/16 10:11:48;;;;;;;56.22;35.42;;;;;;;11.25;74.97;102087.56;5065177;28;20051;-73
2023/02/16 10:14:43;;;;;;;39.53;24.65;;;;;;;11.45;74.44;102088.53;5056293;28;20052;-74
2023/02/16 10:17:37;;;;;;;31.67;21.88;;;;;;;11.42;74.50;102087.16;5071210;28;20060;-74
2023/02/16 10:20:08;;;;;;;36.80;21.33;;;;;;;11.58;74.07;102087.88;5051608;28;20154;-74
2023/02/16 10:22:42;;;;;;;31.48;20.80;;;;;;;11.85;73.45;102085.53;5060456;28;20048;-73
2023/02/16 10:25:15;;;;;;;36.58;21.30;;;;;;;11.70;73.70;102086.47;5058341;28;20056;-73
2023/02/16 10:27:49;;;;;;;31.95;20.27;;;;;;;11.69;74.16;102086.75;5060761;28;20053;-73
2023/02/16 10:30:18;;;;;;;36.55;21.33;;;;;;;11.90;73.43;102082.72;5051651;28;20063;-73
2023/02/16 10:32:46;;;;;;;43.05;27.20;;;;;;;11.80;74.08;102089.13;5068635;28;20048;-74
2023/02/16 10:35:17;;;;;;;32.25;21.75;;;;;;;11.77;73.93;102088.91;5057797;28;20049;-73
2023/02/16 10:38:07;;;;;;;34.38;22.35;;;;;;;11.87;73.77;102088.81;5065573;28;20048;-73
2023/02/16 10:40:51;;;;;;;31.10;19.42;;;;;;;11.84;73.88;102092.97;5064330;28;20072;-71
2023/02/16 10:43:29;;;;;;;31.77;18.98;;;;;;;11.69;74.62;102095.03;5057005;28;20234;-76
2023/02/16 10:45:58;;;;;;;38.17;19.75;;;;;;;11.71;74.78;102101.94;5065685;28;20063;-75
2023/02/16 10:48:26;;;;;;;35.67;19.42;;;;;;;11.84;74.69;102097.66;5072395;28;20045;-75
2023/02/16 10:50:57;;;;;;;29.52;19.25;;;;;;;11.90;74.58;102093.75;5067364;28;20048;-75
2023/02/16 10:53:31;;;;;;;32.63;20.67;;;;;;;11.98;74.01;102085.69;5074050;28;20036;-74
2023/02/16 10:55:58;;;;;;;34.30;19.42;;;;;;;11.96;73.89;102081.56;5058874;28;20048;-78
2023/02/16 10:58:35;;;;;;;31.95;20.83;;;;;;;11.96;73.96;102081.56;5085952;28;20052;-75
2023/02/16 11:01:10;;;;;;;34.42;19.65;;;;;;;11.90;74.21;102088.25;5074377;28;20392;-77
2023/02/16 11:03:43;;;;;;;37.95;21.63;;;;;;;12.02;74.39;102089.50;5072630;28;20055;-79
2023/02/16 11:06:13;;;;;;;40.38;21.95;;;;;;;11.97;74.64;102084.03;5055942;28;20424;-78
2023/02/16 11:08:49;;;;;;;29.00;20.33;;;;;;;12.06;74.40;102092.53;5072003;28;20053;-77
2023/02/16 11:11:18;;;;;;;31.30;20.38;;;;;;;12.03;74.69;102090.34;5050748;28;20045;-76
2023/02/16 11:13:48;;;;;;;33.03;20.17;;;;;;;12.26;74.56;102090.38;5062690;28;20051;-77
2023/02/16 11:16:22;;;;;;;31.85;19.50;;;;;;;12.45;73.86;102090.47;5051021;28;20056;-76
2023/02/16 11:18:58;;;;;;;34.42;20.30;;;;;;;12.45;73.68;102080.25;5057888;28;20304;-78
2023/02/16 11:21:46;;;;;;;34.65;19.67;;;;;;;12.59;73.80;102091.41;5056447;28;20060;-77
2023/02/16 11:24:27;;;;;;;39.13;19.65;;;;;;;12.83;73.32;102083.94;5041485;28;20668;-77
2023/02/16 11:27:02;;;;;;;33.75;19.90;;;;;;;12.84;73.07;102082.00;5077342;28;20052;-74
2023/02/16 11:29:30;;;;;;;37.92;20.10;;;;;;;13.05;72.62;102078.72;5046958;28;20075;-74
2023/02/16 11:31:58;;;;;;;37.38;18.83;;;;;;;12.96;73.28;102074.94;5060742;28;20049;-74
2023/02/16 11:34:36;;;;;;;30.63;18.35;;;;;;;13.00;73.08;102070.47;5025420;28;20057;-75
2023/02/16 11:37:24;;;;;;;26.42;17.45;;;;;;;13.00;73.51;102078.75;5040033;28;20503;-76
2023/02/16 11:39:54;;;;;;;29.13;16.88;;;;;;;13.31;72.56;102066.19;5055903;28;20045;-74
2023/02/16 11:42:27;;;;;;;;;;;;;;;13.30;72.33;102061.75;5063185;28;20083;-72
2023/02/16 11:44:57;;;;;;;33.33;16.95;;;;;;;13.31;72.38;102068.13;5059893;28;19929;-72
2023/02/16 11:47:29;;;;;;;27.33;16.17;;;;;;;13.35;72.14;102067.22;5041819;28;20056;-74
2023/02/16 11:50:27;;;;;;;24.83;16.10;;;;;;;13.25;72.79;102070.13;5051415;28;20064;-73
2023/02/16 11:53:10;;;;;;;26.25;14.13;;;;;;;13.16;73.16;102058.09;5054817;28;20040;-73
2023/02/16 11:55:42;;;;;;;24.30;14.73;;;;;;;13.39;72.88;102056.38;5059050;28;20060;-74
2023/02/16 11:58:24;;;;;;;25.42;15.07;;;;;;;13.37;72.45;102048.38;5056059;28;20048;-75
2023/02/16 12:00:57;;;;;;;53.13;28.42;;;;;;;13.92;71.04;102046.66;5062612;28;20049;-74
2023/02/16 12:03:51;;;;;;;61.13;31.40;;;;;;;13.74;71.49;102035.63;5074306;28;20049;-74
2023/02/16 12:06:44;;;;;;;38.35;24.85;;;;;;;13.81;71.35;102042.41;5029017;28;20040;-74
2023/02/16 12:09:36;;;;;;;28.15;16.50;;;;;;;13.72;71.37;102035.09;5057929;28;20519;-75
2023/02/16 12:12:16;;;;;;;26.02;15.60;;;;;;;13.76;71.93;102027.81;5031431;28;20048;-75
2023/02/16 12:14:52;;;;;;;22.17;13.93;;;;;;;13.60;72.25;102030.00;5062043;28;20052;-69
2023/02/16 12:17:45;;;;;;;19.42;12.73;;;;;;;14.29;71.93;102027.16;5065237;28;20040;-72
2023/02/16 12:20:28;;;;;;;19.42;12.48;;;;;;;14.04;70.91;102018.44;5046141;28;20055;-70